Time;durP1;ratioP1;P1;durP2;ratioP2;P2;SDS_P1;SDS_P2;PMS_P1;PMS_P2;Temp;Humidity;BMP_temperature;BMP_pressure;BME280_temperature;BME280_humidity;BME280_pressure;Samples;Min_cycle;Max_cycle;Signal;HPM_P1;HPM_P2
2022/06/08 00:00:16;;;;;;;17.30;16.50;;;15.80;93.00;;;;;;4966169;28;20970;-68
2022/06/08 00:02:49;;;;;;;17.40;16.50;;;15.70;93.20;;;;;;4974225;28;20470;-68
2022/06/08 00:05:16;;;;;;;18.10;16.90;;;15.70;93.50;;;;;;4973190;28;20828;-68
2022/06/08 00:07:43;;;;;;;17.27;16.17;;;15.70;93.50;;;;;;4974781;28;20494;-69
2022/06/08 00:10:11;;;;;;;17.47;16.57;;;15.70;93.50;;;;;;4967314;28;20535;-68
2022/06/08 00:12:38;;;;;;;17.90;16.90;;;15.70;93.30;;;;;;4964111;28;20541;-68
2022/06/08 00:15:06;;;;;;;18.07;16.97;;;15.70;93.30;;;;;;4972703;28;20470;-68
2022/06/08 00:17:33;;;;;;;17.13;16.33;;;15.60;93.40;;;;;;4968275;28;20470;-72
2022/06/08 00:20:02;;;;;;;17.63;16.80;;;15.60;93.30;;;;;;4975233;28;20467;-69
2022/06/08 00:22:29;;;;;;;16.80;16.00;;;15.60;93.30;;;;;;4963103;28;20811;-70
2022/06/08 00:24:56;;;;;;;17.10;16.30;;;15.60;93.40;;;;;;4969701;28;20472;-70
2022/06/08 00:27:23;;;;;;;17.37;16.33;;;15.50;93.60;;;;;;4964682;28;20592;-70
2022/06/08 00:29:49;;;;;;;17.83;16.70;;;15.60;93.50;;;;;;4962230;28;20459;-68
2022/06/08 00:32:17;;;;;;;17.30;16.43;;;15.60;93.30;;;;;;4969792;28;20495;-68
2022/06/08 00:34:44;;;;;;;17.17;16.37;;;15.60;93.30;;;;;;4968610;28;20463;-68
2022/06/08 00:37:13;;;;;;;17.50;16.60;;;15.70;93.20;;;;;;4967415;28;20536;-68
2022/06/08 00:39:40;;;;;;;17.40;16.50;;;15.70;92.90;;;;;;4963096;28;20518;-68
2022/06/08 00:42:10;;;;;;;17.63;16.77;;;15.70;93.00;;;;;;4962014;28;21086;-68
2022/06/08 00:44:41;;;;;;;17.43;16.53;;;15.70;93.00;;;;;;4970312;28;20522;-70
2022/06/08 00:47:10;;;;;;;17.30;16.40;;;15.70;93.00;;;;;;4970272;28;20486;-70
2022/06/08 00:49:41;;;;;;;17.90;16.97;;;15.80;92.70;;;;;;4969396;28;20491;-68
2022/06/08 00:52:08;;;;;;;17.60;16.80;;;15.70;92.40;;;;;;4968539;28;20498;-70
2022/06/08 00:54:41;;;;;;;16.97;16.10;;;15.70;92.30;;;;;;4970135;28;20471;-70
2022/06/08 00:57:13;;;;;;;17.67;16.23;;;15.70;92.30;;;;;;4968713;28;20598;-69
2022/06/08 00:59:45;;;;;;;17.93;16.83;;;15.70;92.40;;;;;;4968868;28;20867;-69
2022/06/08 01:02:12;;;;;;;17.43;16.30;;;15.70;92.50;;;;;;4957592;28;20462;-70
2022/06/08 01:04:40;;;;;;;17.40;16.30;;;15.60;92.50;;;;;;4965791;28;20554;-69
2022/06/08 01:07:07;;;;;;;17.50;16.40;;;15.60;92.70;;;;;;4968065;28;20486;-70
2022/06/08 01:09:39;;;;;;;17.67;16.50;;;15.70;92.50;;;;;;4969127;28;20558;-70
2022/06/08 01:12:14;;;;;;;17.50;16.70;;;15.60;92.50;;;;;;4962579;28;20469;-69
2022/06/08 01:14:41;;;;;;;18.37;17.47;;;15.70;92.40;;;;;;4967333;28;20810;-69
2022/06/08 01:17:10;;;;;;;18.20;17.10;;;15.60;92.60;;;;;;4967835;28;20940;-68
2022/06/08 01:19:39;;;;;;;17.70;16.80;;;15.60;92.50;;;;;;4966078;28;20543;-70
2022/06/08 01:22:11;;;;;;;17.67;16.73;;;15.50;92.60;;;;;;4963170;28;20471;-70
2022/06/08 01:24:38;;;;;;;18.53;17.53;;;15.50;92.80;;;;;;4963197;28;20969;-70
2022/06/08 01:27:41;;;;;;;18.37;17.40;;;15.50;92.60;;;;;;4960269;28;20514;-70
2022/06/08 01:30:19;;;;;;;17.70;16.80;;;15.50;92.50;;;;;;4945573;28;21055;-70
2022/06/08 01:33:13;;;;;;;20.50;19.30;;;15.50;92.70;;;;;;4960819;28;21060;-70
2022/06/08 01:35:50;;;;;;;17.53;16.70;;;15.50;92.70;;;;;;4967349;28;20566;-70
2022/06/08 01:38:25;;;;;;;18.93;17.93;;;15.50;92.50;;;;;;4969493;28;20486;-69
2022/06/08 01:41:21;;;;;;;18.20;17.20;;;15.50;92.20;;;;;;4967488;28;20585;-70
2022/06/08 01:43:58;;;;;;;18.50;17.57;;;15.50;92.40;;;;;;4955018;28;20495;-70
2022/06/08 01:46:27;;;;;;;18.17;17.17;;;15.40;92.40;;;;;;4963946;28;20593;-70
2022/06/08 01:49:18;;;;;;;18.03;17.13;;;15.40;92.40;;;;;;4970155;28;21090;-70
2022/06/08 01:52:03;;;;;;;18.07;17.07;;;15.40;92.30;;;;;;4960290;28;20571;-70
2022/06/08 01:54:41;;;;;;;18.47;17.27;;;15.40;92.40;;;;;;4962788;28;20481;-70
2022/06/08 01:57:16;;;;;;;18.30;17.40;;;15.30;92.60;;;;;;4959811;28;21103;-70
2022/06/08 01:59:48;;;;;;;19.03;17.93;;;15.30;92.50;;;;;;4967286;28;21758;-68
2022/06/08 02:02:25;;;;;;;18.07;16.87;;;15.30;92.60;;;;;;4964539;28;20494;-67
2022/06/08 02:04:57;;;;;;;18.10;16.60;;;15.30;92.50;;;;;;4962347;28;20554;-68
2022/06/08 02:07:32;;;;;;;18.37;17.37;;;15.30;92.20;;;;;;4961500;28;20874;-68
2022/06/08 02:10:07;;;;;;;18.03;17.13;;;15.20;92.30;;;;;;4964084;28;21083;-68
2022/06/08 02:12:40;;;;;;;18.47;17.47;;;15.20;92.40;;;;;;4955455;28;21289;-68
2022/06/08 02:15:13;;;;;;;18.00;17.10;;;15.20;92.10;;;;;;4965709;28;20466;-67
2022/06/08 02:17:43;;;;;;;18.73;17.63;;;15.20;92.10;;;;;;4969292;28;20521;-67
2022/06/08 02:20:18;;;;;;;19.60;18.53;;;15.10;92.30;;;;;;4967797;28;20543;-68
2022/06/08 02:22:50;;;;;;;19.20;17.90;;;15.10;92.30;;;;;;4961778;28;20949;-68
2022/06/08 02:25:22;;;;;;;18.87;17.80;;;15.10;92.30;;;;;;4966821;28;20473;-72
2022/06/08 02:27:54;;;;;;;19.00;17.70;;;15.10;92.30;;;;;;4967667;28;20553;-70
2022/06/08 02:30:24;;;;;;;18.33;17.13;;;15.10;92.20;;;;;;4967760;28;21103;-70
2022/06/08 02:35:45;;;;;;;18.57;17.50;;;15.10;91.80;;;;;;4973461;28;20630;-70
2022/06/08 02:38:16;;;;;;;18.10;17.10;;;15.10;91.90;;;;;;4969687;28;20578;-70
2022/06/08 02:40:49;;;;;;;19.30;18.00;;;15.10;91.80;;;;;;4968257;28;20460;-69
2022/06/08 02:43:21;;;;;;;19.43;18.43;;;15.10;91.60;;;;;;4973835;28;20550;-69
2022/06/08 02:45:55;;;;;;;19.30;18.40;;;15.10;91.60;;;;;;4968269;28;20570;-69
2022/06/08 02:48:22;;;;;;;19.83;18.67;;;15.00;91.60;;;;;;4973158;28;20489;-71
2022/06/08 02:50:51;;;;;;;19.80;18.60;;;15.00;91.70;;;;;;4969814;28;20451;-69
2022/06/08 02:53:54;;;;;;;19.63;18.47;;;14.90;91.90;;;;;;4963267;28;20573;-69
2022/06/08 02:56:43;;;;;;;20.47;19.23;;;15.00;91.70;;;;;;4966050;28;20491;-69
2022/06/08 02:59:15;;;;;;;19.40;18.40;;;14.90;91.90;;;;;;4970874;28;20487;-69
2022/06/08 03:01:47;;;;;;;19.50;18.50;;;14.90;92.00;;;;;;4964841;28;20459;-69
2022/06/08 03:04:19;;;;;;;19.40;18.47;;;14.90;91.90;;;;;;4972876;28;20901;-69
2022/06/08 03:06:57;;;;;;;20.40;19.30;;;14.80;92.00;;;;;;4965910;28;20511;-70
2022/06/08 03:09:26;;;;;;;20.30;19.20;;;14.80;91.80;;;;;;4966680;28;20495;-70
2022/06/08 03:11:58;;;;;;;21.37;19.80;;;14.80;91.90;;;;;;4967171;28;20546;-70
2022/06/08 03:14:25;;;;;;;21.63;20.43;;;14.90;91.80;;;;;;4967831;28;21045;-69
2022/06/08 03:16:57;;;;;;;21.80;20.67;;;14.80;91.70;;;;;;4966857;28;20486;-68
2022/06/08 03:19:25;;;;;;;19.77;18.77;;;14.90;91.60;;;;;;4971943;28;20478;-71
2022/06/08 03:21:53;;;;;;;20.67;19.33;;;14.90;91.50;;;;;;4965291;28;20463;-70
2022/06/08 03:24:21;;;;;;;21.60;20.07;;;14.90;91.30;;;;;;4967268;28;20458;-70
2022/06/08 03:26:51;;;;;;;21.63;20.53;;;14.90;91.30;;;;;;4971653;28;20846;-67
2022/06/08 03:29:20;;;;;;;21.50;20.40;;;15.00;91.00;;;;;;4966918;28;20542;-67
2022/06/08 03:31:46;;;;;;;19.77;18.50;;;15.00;90.80;;;;;;4970982;28;20561;-67
2022/06/08 03:34:13;;;;;;;21.00;19.90;;;15.00;90.80;;;;;;4967618;28;20599;-67
2022/06/08 03:36:41;;;;;;;20.50;19.30;;;15.10;90.80;;;;;;4971991;28;20593;-67
2022/06/08 03:39:09;;;;;;;20.77;19.67;;;15.20;90.40;;;;;;4967538;28;20926;-67
2022/06/08 03:41:36;;;;;;;21.83;20.53;;;15.20;90.30;;;;;;4970469;28;20538;-67
2022/06/08 03:44:04;;;;;;;20.90;19.80;;;15.30;90.10;;;;;;4964335;28;20780;-68
2022/06/08 03:46:35;;;;;;;20.80;19.60;;;15.40;89.40;;;;;;4977259;28;20478;-68
2022/06/08 03:49:03;;;;;;;19.70;18.70;;;15.50;88.80;;;;;;4970211;28;20483;-67
2022/06/08 03:51:31;;;;;;;21.83;20.03;;;15.60;88.80;;;;;;4972487;28;20562;-68
2022/06/08 03:54:03;;;;;;;21.17;19.87;;;15.90;88.00;;;;;;4964122;28;21019;-67
2022/06/08 03:56:32;;;;;;;23.47;21.80;;;16.30;86.30;;;;;;4970160;28;20871;-69
2022/06/08 03:59:00;;;;;;;23.93;22.60;;;16.80;84.70;;;;;;4969555;28;22021;-70
2022/06/08 04:01:28;;;;;;;23.10;21.37;;;16.90;83.10;;;;;;4959535;28;20566;-69
2022/06/08 04:03:57;;;;;;;23.93;22.00;;;17.00;82.80;;;;;;4969767;28;20459;-70
2022/06/08 04:06:25;;;;;;;24.97;23.40;;;17.00;82.40;;;;;;4969639;28;20599;-70
2022/06/08 04:08:52;;;;;;;23.83;22.30;;;17.00;82.20;;;;;;4961264;28;20475;-70
2022/06/08 04:11:20;;;;;;;24.87;23.37;;;16.90;82.40;;;;;;4967443;28;20495;-69
2022/06/08 04:13:46;;;;;;;23.13;21.93;;;16.90;81.90;;;;;;4967344;28;20482;-69
2022/06/08 04:16:15;;;;;;;24.97;23.83;;;16.80;82.20;;;;;;4968261;28;20526;-70
2022/06/08 04:18:42;;;;;;;23.23;21.83;;;16.90;81.90;;;;;;4958466;28;20494;-69
2022/06/08 04:21:12;;;;;;;23.33;21.93;;;16.90;81.80;;;;;;4964723;28;20463;-70
2022/06/08 04:23:41;;;;;;;25.57;24.03;;;16.90;81.60;;;;;;4960228;28;21068;-70
2022/06/08 04:26:09;;;;;;;23.40;22.10;;;16.80;82.30;;;;;;4970730;28;21060;-69
2022/06/08 04:28:37;;;;;;;25.60;24.30;;;16.80;82.00;;;;;;4971404;28;20555;-74
2022/06/08 04:31:05;;;;;;;24.87;23.47;;;16.90;82.00;;;;;;4959421;28;20897;-70
2022/06/08 04:33:32;;;;;;;24.00;22.40;;;17.10;81.30;;;;;;4964624;28;20569;-70
2022/06/08 04:35:59;;;;;;;24.37;22.40;;;17.30;80.70;;;;;;4964099;28;20483;-70
2022/06/08 04:38:28;;;;;;;25.00;23.50;;;17.30;80.40;;;;;;4970297;28;20558;-69
2022/06/08 04:40:55;;;;;;;25.53;24.13;;;17.50;79.50;;;;;;4962433;28;20558;-69
2022/06/08 04:43:22;;;;;;;25.40;23.70;;;17.50;78.50;;;;;;4957998;28;20456;-70
2022/06/08 04:45:49;;;;;;;27.07;25.53;;;17.60;77.70;;;;;;4964197;28;20900;-69
2022/06/08 04:48:17;;;;;;;24.53;23.13;;;17.50;78.20;;;;;;4961309;28;20546;-69
2022/06/08 04:50:44;;;;;;;26.90;24.80;;;17.50;77.80;;;;;;4967545;28;20558;-69
2022/06/08 04:53:11;;;;;;;26.53;24.93;;;17.50;78.10;;;;;;4961362;28;20554;-69
2022/06/08 04:55:39;;;;;;;25.60;24.10;;;17.40;78.30;;;;;;4962096;28;20490;-70
2022/06/08 04:58:06;;;;;;;25.50;23.90;;;17.50;77.90;;;;;;4960924;28;20546;-70
2022/06/08 05:00:34;;;;;;;24.40;22.80;;;17.30;78.50;;;;;;4956136;28;20582;-68
2022/06/08 05:03:01;;;;;;;25.80;24.40;;;17.20;79.30;;;;;;4963699;28;20546;-67
2022/06/08 05:05:30;;;;;;;28.70;26.77;;;17.10;80.30;;;;;;4971719;28;20557;-68
2022/06/08 05:07:58;;;;;;;25.00;23.60;;;17.10;80.20;;;;;;4971466;28;20561;-70
2022/06/08 05:10:28;;;;;;;24.50;23.10;;;17.20;79.50;;;;;;4961429;28;20466;-69
2022/06/08 05:12:58;;;;;;;25.63;24.00;;;17.20;79.10;;;;;;4967569;28;20922;-70
2022/06/08 05:15:28;;;;;;;25.17;23.47;;;17.30;79.00;;;;;;4969126;28;20487;-67
2022/06/08 05:17:56;;;;;;;25.83;24.23;;;17.20;78.20;;;;;;4972803;28;20736;-69
2022/06/08 05:20:24;;;;;;;26.87;25.17;;;17.30;78.40;;;;;;4959523;28;20579;-70
2022/06/08 05:22:52;;;;;;;26.43;24.83;;;17.30;78.50;;;;;;4962580;28;20476;-69
2022/06/08 05:25:25;;;;;;;24.57;23.10;;;17.40;78.20;;;;;;4972926;28;20549;-69
2022/06/08 05:27:52;;;;;;;24.83;23.33;;;17.60;77.00;;;;;;4957289;28;20555;-69
2022/06/08 05:30:21;;;;;;;25.80;24.30;;;17.90;75.90;;;;;;4961806;28;20570;-69
2022/06/08 05:32:48;;;;;;;27.20;25.50;;;18.10;75.30;;;;;;4966509;28;20470;-69
2022/06/08 05:35:15;;;;;;;27.73;26.03;;;18.20;75.00;;;;;;4961220;28;20581;-69
2022/06/08 05:37:42;;;;;;;25.90;24.40;;;18.40;74.20;;;;;;4971699;28;21414;-69
2022/06/08 05:40:10;;;;;;;25.23;23.83;;;18.40;74.10;;;;;;4970024;28;20553;-70
2022/06/08 05:42:38;;;;;;;26.93;25.33;;;18.60;74.20;;;;;;4968156;28;20578;-69
2022/06/08 05:45:06;;;;;;;30.40;28.60;;;18.80;73.60;;;;;;4967989;28;20476;-69
2022/06/08 05:47:35;;;;;;;27.57;25.97;;;19.00;72.80;;;;;;4973046;28;20469;-69
2022/06/08 05:50:02;;;;;;;26.47;24.83;;;19.20;72.30;;;;;;4959950;28;20465;-71
2022/06/08 05:52:29;;;;;;;27.07;25.17;;;19.20;71.80;;;;;;4962884;28;20565;-70
2022/06/08 05:54:56;;;;;;;27.70;25.80;;;19.20;71.20;;;;;;4963403;28;20483;-69
2022/06/08 05:57:23;;;;;;;25.93;24.33;;;19.40;70.90;;;;;;4968862;28;20488;-70
2022/06/08 05:59:50;;;;;;;27.80;26.00;;;19.50;70.20;;;;;;4968366;28;20463;-71
2022/06/08 06:02:17;;;;;;;26.80;25.20;;;19.70;70.20;;;;;;4972149;28;20463;-70
2022/06/08 06:04:46;;;;;;;28.23;26.63;;;19.90;69.30;;;;;;4966550;28;20635;-69
2022/06/08 06:07:13;;;;;;;28.10;26.40;;;20.10;68.40;;;;;;4973196;28;20530;-69
2022/06/08 06:09:41;;;;;;;28.50;26.90;;;20.10;68.40;;;;;;4961014;28;20833;-69
2022/06/08 06:12:09;;;;;;;27.03;25.53;;;20.30;67.90;;;;;;4971773;28;20546;-69
2022/06/08 06:14:37;;;;;;;29.30;27.60;;;20.50;67.70;;;;;;4965972;28;20584;-69
2022/06/08 06:17:05;;;;;;;27.80;26.10;;;20.60;67.60;;;;;;4972501;28;20568;-69
2022/06/08 06:19:32;;;;;;;28.37;26.67;;;20.70;66.50;;;;;;4975134;28;20487;-69
2022/06/08 06:22:01;;;;;;;28.40;26.60;;;20.70;66.10;;;;;;4971402;28;20548;-70
2022/06/08 06:24:28;;;;;;;31.10;29.13;;;20.80;66.40;;;;;;4970337;28;20461;-69
2022/06/08 06:26:55;;;;;;;28.03;26.33;;;21.00;66.30;;;;;;4972847;28;20971;-69
2022/06/08 06:29:23;;;;;;;29.67;27.60;;;21.00;65.80;;;;;;4974419;28;20958;-75
2022/06/08 06:31:53;;;;;;;27.53;25.93;;;21.10;65.80;;;;;;4972499;28;20496;-69
2022/06/08 06:34:23;;;;;;;28.10;26.30;;;21.10;64.90;;;;;;4983200;28;20491;-69
2022/06/08 06:36:50;;;;;;;26.97;25.33;;;21.30;65.30;;;;;;4982137;28;20520;-70
2022/06/08 06:39:18;;;;;;;28.33;26.73;;;21.50;65.30;;;;;;4962675;28;20550;-71
2022/06/08 06:41:46;;;;;;;27.47;25.80;;;21.70;64.10;;;;;;4970628;28;21013;-71
2022/06/08 06:44:13;;;;;;;30.47;28.60;;;21.80;64.20;;;;;;4973162;28;20895;-71
2022/06/08 06:46:40;;;;;;;28.33;26.53;;;21.80;63.50;;;;;;4968068;28;20975;-71
2022/06/08 06:49:07;;;;;;;29.20;27.30;;;21.70;63.90;;;;;;4956410;28;21001;-70
2022/06/08 06:51:35;;;;;;;30.07;27.90;;;21.70;63.90;;;;;;4968055;28;20577;-71
2022/06/08 06:54:02;;;;;;;28.93;27.20;;;21.80;63.90;;;;;;4972736;28;20463;-69
2022/06/08 06:56:30;;;;;;;29.03;27.33;;;21.80;63.80;;;;;;4966781;28;20570;-69
2022/06/08 06:58:57;;;;;;;28.30;26.60;;;21.90;63.60;;;;;;4964097;28;20546;-67
2022/06/08 07:01:24;;;;;;;29.07;27.33;;;22.00;63.20;;;;;;4969360;28;20541;-67
2022/06/08 07:03:51;;;;;;;29.17;27.50;;;22.10;63.00;;;;;;4972048;28;20553;-68
2022/06/08 07:06:18;;;;;;;28.20;26.40;;;22.10;63.20;;;;;;4971057;28;20911;-68
2022/06/08 07:08:45;;;;;;;30.60;28.80;;;22.20;62.30;;;;;;4971412;28;20464;-68
2022/06/08 07:14:02;;;;;;;29.00;26.97;;;22.30;61.80;;;;;;4968215;28;20458;-68
2022/06/08 07:16:33;;;;;;;29.57;27.73;;;22.30;62.20;;;;;;4970288;28;20572;-69
2022/06/08 07:19:05;;;;;;;30.77;28.80;;;22.30;62.40;;;;;;4971891;28;20471;-67
2022/06/08 07:21:33;;;;;;;27.97;26.47;;;22.20;62.60;;;;;;4967976;28;20577;-68
2022/06/08 07:24:00;;;;;;;29.00;27.30;;;22.20;62.90;;;;;;4971424;28;21248;-68
2022/06/08 07:26:28;;;;;;;29.93;28.07;;;22.20;62.50;;;;;;4969769;28;20483;-68
2022/06/08 07:28:55;;;;;;;27.80;26.20;;;22.00;62.80;;;;;;4970899;28;20461;-67
2022/06/08 07:31:24;;;;;;;29.57;27.53;;;21.90;63.10;;;;;;4960377;28;20589;-69
2022/06/08 07:33:51;;;;;;;28.47;26.40;;;21.70;63.40;;;;;;4970227;28;21314;-69
2022/06/08 07:36:18;;;;;;;28.70;26.80;;;21.50;64.00;;;;;;4968941;28;20600;-70
2022/06/08 07:38:45;;;;;;;28.47;26.77;;;21.50;64.20;;;;;;4965890;28;20878;-69
2022/06/08 07:41:12;;;;;;;30.97;28.87;;;21.30;64.60;;;;;;4965550;28;20902;-69
2022/06/08 07:43:39;;;;;;;29.47;27.57;;;21.30;65.10;;;;;;4965604;28;20808;-69
2022/06/08 07:46:06;;;;;;;29.20;27.40;;;21.20;65.50;;;;;;4968701;28;20568;-69
2022/06/08 07:51:20;;;;;;;27.87;26.17;;;21.30;65.10;;;;;;4968250;28;20479;-69
2022/06/08 07:53:46;;;;;;;30.47;28.57;;;21.10;65.30;;;;;;4970250;28;20523;-68
2022/06/08 07:56:13;;;;;;;28.13;26.40;;;21.10;65.70;;;;;;4968246;28;20915;-68
2022/06/08 07:58:41;;;;;;;27.37;25.63;;;21.20;64.80;;;;;;4963378;28;20542;-67
2022/06/08 08:01:08;;;;;;;30.97;28.70;;;21.10;64.70;;;;;;4967683;28;21103;-69
2022/06/08 08:03:37;;;;;;;28.60;26.80;;;21.10;65.10;;;;;;4971432;28;20461;-67
2022/06/08 08:06:06;;;;;;;28.30;26.37;;;21.20;65.30;;;;;;4965173;28;20569;-67
2022/06/08 08:08:34;;;;;;;28.33;26.63;;;21.30;64.70;;;;;;4957937;28;20466;-67
2022/06/08 08:11:01;;;;;;;29.57;27.77;;;21.30;65.20;;;;;;4968049;28;20466;-67
2022/06/08 08:13:28;;;;;;;27.90;26.30;;;21.30;64.60;;;;;;4971341;28;20540;-67
2022/06/08 08:15:55;;;;;;;29.77;27.87;;;21.30;64.50;;;;;;4965755;28;20486;-67
2022/06/08 08:18:22;;;;;;;27.57;25.77;;;21.40;64.50;;;;;;4969344;28;20567;-67
2022/06/08 08:20:50;;;;;;;29.60;27.70;;;21.30;64.20;;;;;;4966132;28;20560;-67
2022/06/08 08:23:17;;;;;;;27.83;26.03;;;21.30;65.00;;;;;;4970245;28;20464;-67
2022/06/08 08:25:44;;;;;;;28.50;26.70;;;21.40;64.90;;;;;;4968188;28;20568;-67
2022/06/08 08:28:11;;;;;;;29.00;27.00;;;21.50;64.00;;;;;;4969958;28;20560;-67
2022/06/08 08:30:38;;;;;;;28.23;26.33;;;21.60;62.70;;;;;;4965673;28;20994;-67
2022/06/08 08:33:05;;;;;;;29.80;27.67;;;21.60;61.90;;;;;;4969978;28;20894;-67
2022/06/08 08:35:32;;;;;;;29.50;27.47;;;21.60;61.90;;;;;;4961695;28;20493;-67
2022/06/08 08:38:01;;;;;;;28.53;26.63;;;21.60;61.80;;;;;;4969887;28;20571;-67
2022/06/08 08:40:41;;;;;;;28.10;26.40;;;21.80;61.60;;;;;;4964875;28;20477;-67
2022/06/08 08:43:09;;;;;;;29.10;27.20;;;21.90;61.20;;;;;;4966299;28;20469;-69
2022/06/08 08:45:57;;;;;;;28.57;26.77;;;22.00;60.70;;;;;;4968751;28;20481;-69
2022/06/08 08:48:28;;;;;;;28.80;26.37;;;21.90;60.90;;;;;;4968717;28;20549;-70
2022/06/08 08:51:06;;;;;;;30.20;28.27;;;22.10;61.20;;;;;;4968153;28;20498;-69
2022/06/08 08:53:44;;;;;;;28.27;26.67;;;22.20;60.90;;;;;;4965696;28;20793;-69
2022/06/08 08:56:15;;;;;;;28.20;26.50;;;22.30;59.90;;;;;;4965964;28;20490;-70
2022/06/08 08:58:44;;;;;;;28.83;26.83;;;22.40;59.20;;;;;;4967104;28;20469;-70
2022/06/08 09:01:17;;;;;;;30.03;28.23;;;22.50;58.90;;;;;;4962555;28;20464;-69
2022/06/08 09:03:46;;;;;;;30.60;28.10;;;22.50;59.50;;;;;;4965492;28;20462;-70
2022/06/08 09:06:16;;;;;;;28.90;27.23;;;22.70;59.30;;;;;;4967133;28;21297;-69
2022/06/08 09:08:46;;;;;;;29.27;27.30;;;22.80;59.10;;;;;;4965000;28;20554;-69
2022/06/08 09:11:25;;;;;;;29.60;27.50;;;22.90;59.50;;;;;;4967697;28;20562;-69
2022/06/08 09:13:54;;;;;;;28.70;26.80;;;22.90;59.40;;;;;;4968369;28;20560;-69
2022/06/08 09:16:35;;;;;;;31.60;29.30;;;23.00;59.50;;;;;;4966841;28;20899;-70
2022/06/08 09:19:23;;;;;;;44.77;34.33;;;23.00;59.30;;;;;;4969003;28;21370;-69
2022/06/08 09:21:51;;;;;;;30.47;28.17;;;23.10;59.30;;;;;;4961015;28;20534;-70
2022/06/08 09:24:34;;;;;;;27.90;26.20;;;23.30;59.10;;;;;;4960197;28;20920;-69
2022/06/08 09:27:14;;;;;;;29.00;27.00;;;23.40;58.20;;;;;;4959916;28;20569;-69
2022/06/08 09:29:50;;;;;;;30.07;27.87;;;23.40;56.90;;;;;;4968054;28;20560;-68
2022/06/08 09:32:33;;;;;;;36.10;32.93;;;23.60;56.80;;;;;;4962934;28;20488;-70
2022/06/08 09:35:05;;;;;;;39.13;32.73;;;23.80;56.70;;;;;;4963764;28;21052;-69
2022/06/08 09:37:33;;;;;;;32.77;29.37;;;23.90;55.30;;;;;;4968951;28;21007;-69
2022/06/08 09:40:02;;;;;;;31.00;28.77;;;23.90;54.10;;;;;;4967520;28;20465;-70
2022/06/08 09:42:57;;;;;;;29.23;27.47;;;24.00;54.40;;;;;;4967717;28;20549;-69
2022/06/08 09:45:35;;;;;;;29.53;27.53;;;24.20;53.70;;;;;;4959290;28;20581;-69
2022/06/08 09:51:26;;;;;;;28.80;26.67;;;24.40;52.30;;;;;;4963072;28;20474;-67
2022/06/08 09:54:05;;;;;;;28.57;26.73;;;24.60;51.90;;;;;;4963179;28;20466;-67
2022/06/08 09:56:47;;;;;;;28.33;26.43;;;24.80;51.80;;;;;;4965983;28;20561;-67
2022/06/08 09:59:25;;;;;;;30.10;28.40;;;24.90;51.40;;;;;;4959193;28;20467;-67
2022/06/08 10:01:56;;;;;;;30.53;28.73;;;25.20;50.60;;;;;;4962502;28;20590;-67
2022/06/08 10:04:40;;;;;;;28.97;26.97;;;25.30;49.60;;;;;;4963027;28;20550;-67
2022/06/08 10:07:16;;;;;;;28.50;26.60;;;25.50;49.80;;;;;;4957115;28;20831;-67
2022/06/08 10:10:02;;;;;;;30.93;28.50;;;25.70;49.10;;;;;;4962678;28;21025;-67
2022/06/08 10:12:42;;;;;;;29.87;27.97;;;25.80;49.50;;;;;;4960956;28;20487;-67
2022/06/08 10:15:19;;;;;;;28.50;26.60;;;25.90;48.00;;;;;;4961218;28;20567;-67
2022/06/08 10:17:53;;;;;;;27.70;26.00;;;26.00;48.60;;;;;;4961452;28;21078;-67
2022/06/08 10:20:26;;;;;;;29.70;27.60;;;26.20;48.40;;;;;;4960238;28;21192;-67
2022/06/08 10:22:57;;;;;;;28.73;26.93;;;26.30;48.20;;;;;;4960076;28;20470;-67
2022/06/08 10:25:32;;;;;;;29.93;28.13;;;26.30;47.50;;;;;;4962498;28;20561;-67
2022/06/08 10:28:06;;;;;;;28.97;26.87;;;26.30;47.50;;;;;;4957435;28;20967;-67
2022/06/08 10:30:41;;;;;;;31.40;29.57;;;26.20;47.60;;;;;;4965051;28;20556;-68
2022/06/08 10:33:15;;;;;;;30.97;29.07;;;26.20;48.00;;;;;;4961706;28;20958;-70
2022/06/08 10:35:44;;;;;;;31.43;29.60;;;26.20;47.70;;;;;;4960962;28;21070;-69
2022/06/08 10:38:20;;;;;;;31.40;29.30;;;26.10;47.90;;;;;;4963152;28;20463;-71
2022/06/08 10:40:51;;;;;;;28.73;27.07;;;26.30;47.60;;;;;;4963405;28;20548;-70
2022/06/08 10:43:24;;;;;;;28.47;26.77;;;26.20;47.50;;;;;;4958062;28;20503;-72
2022/06/08 10:45:58;;;;;;;30.60;28.60;;;26.20;47.70;;;;;;4965256;28;20979;-70
2022/06/08 10:48:51;;;;;;;29.47;27.70;;;26.10;46.20;;;;;;4959763;28;20465;-67
2022/06/08 10:51:35;;;;;;;38.60;35.70;;;26.10;46.30;;;;;;4962010;28;20561;-69
2022/06/08 10:56:51;;;;;;;33.03;30.77;;;26.10;47.10;;;;;;4961064;28;20645;-72
2022/06/08 10:59:24;;;;;;;33.33;30.93;;;26.10;46.60;;;;;;4963053;28;20477;-71
2022/06/08 11:02:04;;;;;;;28.67;26.97;;;26.20;45.10;;;;;;4964413;28;20466;-69
2022/06/08 11:04:52;;;;;;;31.20;29.30;;;26.40;43.30;;;;;;4962688;28;20547;-71
2022/06/08 11:07:22;;;;;;;33.30;31.20;;;26.30;41.60;;;;;;4967925;28;20485;-69
2022/06/08 11:10:12;;;;;;;33.63;31.43;;;26.20;42.90;;;;;;4966163;28;20548;-69
2022/06/08 11:12:55;;;;;;;29.70;27.87;;;26.50;45.20;;;;;;4970117;28;20544;-69
2022/06/08 11:15:56;;;;;;;29.53;27.73;;;26.80;45.30;;;;;;4968589;28;20471;-69
2022/06/08 11:18:33;;;;;;;31.80;29.90;;;27.10;44.90;;;;;;4970808;28;20820;-69
2022/06/08 11:21:22;;;;;;;31.90;29.90;;;27.20;44.20;;;;;;4962708;28;20552;-69
2022/06/08 11:23:54;;;;;;;32.77;30.87;;;27.30;42.10;;;;;;4963363;28;20536;-70
2022/06/08 11:26:47;;;;;;;32.00;29.80;;;27.50;41.70;;;;;;4962404;28;20556;-72
2022/06/08 11:29:39;;;;;;;31.03;28.97;;;27.70;41.30;;;;;;4966899;28;20466;-71
2022/06/08 11:32:35;;;;;;;29.43;27.63;;;27.80;42.30;;;;;;4961385;28;21013;-70
2022/06/08 11:35:19;;;;;;;30.33;28.40;;;27.90;41.40;;;;;;4959316;28;20464;-68
2022/06/08 11:37:57;;;;;;;28.97;27.10;;;27.80;43.00;;;;;;4966968;28;20468;-67
2022/06/08 11:40:28;;;;;;;30.50;28.67;;;27.80;42.10;;;;;;4961572;28;20866;-73
2022/06/08 11:42:59;;;;;;;32.27;30.07;;;27.80;41.70;;;;;;4962133;28;20466;-70
2022/06/08 11:45:36;;;;;;;31.73;29.83;;;27.80;42.00;;;;;;4959939;28;20494;-69
2022/06/08 11:48:14;;;;;;;28.83;27.03;;;27.80;42.50;;;;;;4962212;28;20725;-68
2022/06/08 11:50:44;;;;;;;30.87;28.67;;;27.80;41.60;;;;;;4961046;28;20812;-70
2022/06/08 11:53:18;;;;;;;29.33;27.43;;;27.80;41.80;;;;;;4960228;28;20497;-69
2022/06/08 11:55:56;;;;;;;28.37;26.63;;;27.90;42.60;;;;;;4957870;28;20487;-68
2022/06/08 11:58:28;;;;;;;28.60;26.70;;;27.90;41.10;;;;;;4963951;28;20463;-68
2022/06/08 12:00:59;;;;;;;29.13;27.33;;;28.00;41.50;;;;;;4967480;28;20550;-68
2022/06/08 12:03:35;;;;;;;31.57;29.57;;;28.30;42.10;;;;;;4959983;28;20590;-69
2022/06/08 12:06:08;;;;;;;29.90;27.80;;;28.60;41.50;;;;;;4968846;28;20510;-68
2022/06/08 12:08:39;;;;;;;30.10;27.53;;;28.60;40.30;;;;;;4970504;28;20541;-69
2022/06/08 12:11:07;;;;;;;28.43;26.43;;;28.80;40.30;;;;;;4968490;28;20455;-71
2022/06/08 12:13:34;;;;;;;28.33;26.20;;;28.80;39.00;;;;;;4963911;28;20471;-71
2022/06/08 12:16:20;;;;;;;29.13;27.33;;;29.10;38.70;;;;;;4966206;28;20526;-70
2022/06/08 12:18:54;;;;;;;31.00;28.30;;;29.00;38.70;;;;;;4969508;28;20546;-70
2022/06/08 12:21:33;;;;;;;31.13;28.77;;;29.30;38.90;;;;;;4964214;28;20473;-68
2022/06/08 12:24:17;;;;;;;31.40;28.60;;;29.30;39.00;;;;;;4963535;28;20481;-68
2022/06/08 12:26:56;;;;;;;30.77;28.60;;;29.30;38.90;;;;;;4959621;28;20985;-70
2022/06/08 12:29:41;;;;;;;62.43;34.90;;;29.30;39.20;;;;;;4964214;28;20458;-73
2022/06/08 12:32:36;;;;;;;140.03;46.80;;;29.20;39.60;;;;;;4966140;28;21115;-71
2022/06/08 12:35:33;;;;;;;63.43;35.57;;;29.00;39.40;;;;;;4959175;28;21186;-70
2022/06/08 12:38:20;;;;;;;118.13;45.30;;;28.90;39.40;;;;;;4965935;28;20464;-71
2022/06/08 12:41:07;;;;;;;31.03;29.07;;;29.00;39.00;;;;;;4961559;28;20558;-68
2022/06/08 12:43:39;;;;;;;341.33;71.33;;;29.20;38.50;;;;;;4960553;28;20567;-69
2022/06/08 12:46:22;;;;;;;54.47;34.53;;;29.30;38.40;;;;;;4956738;28;20480;-71
2022/06/08 12:49:01;;;;;;;88.77;38.60;;;29.50;38.80;;;;;;4963241;28;20487;-72
2022/06/08 12:51:40;;;;;;;33.67;30.50;;;29.40;38.70;;;;;;4962333;28;20545;-72
2022/06/08 12:54:15;;;;;;;28.20;26.30;;;29.40;38.70;;;;;;4969348;28;20465;-73
2022/06/08 12:56:44;;;;;;;179.33;48.70;;;29.50;38.50;;;;;;4954437;28;20494;-70
2022/06/08 12:59:12;;;;;;;36.27;32.50;;;29.50;39.30;;;;;;4968976;28;20506;-70
2022/06/08 13:01:41;;;;;;;416.73;77.33;;;29.50;38.50;;;;;;4970754;28;20459;-70
2022/06/08 13:04:09;;;;;;;103.43;37.53;;;29.60;39.20;;;;;;4969123;28;20456;-71